sensor_id;sensor_type;location;lat;lon;timestamp;pressure;altitude;pressure_sealevel;temperature;humidity
47636;BME280;33364;50.766;15.338;2023-08-31T00:02:10;94404.53;;;10.80;88.99
47636;BME280;33364;50.766;15.338;2023-08-31T00:04:36;94400.75;;;10.72;89.21
47636;BME280;33364;50.766;15.338;2023-08-31T00:07:02;94397.50;;;10.75;89.38
47636;BME280;33364;50.766;15.338;2023-08-31T00:09:28;94402.31;;;10.73;89.55
47636;BME280;33364;50.766;15.338;2023-08-31T00:11:55;94403.63;;;10.62;88.94
47636;BME280;33364;50.766;15.338;2023-08-31T00:14:23;94411.44;;;10.67;89.35
47636;BME280;33364;50.766;15.338;2023-08-31T00:16:49;94403.97;;;10.69;88.96
47636;BME280;33364;50.766;15.338;2023-08-31T00:19:16;94412.88;;;10.73;89.04
47636;BME280;33364;50.766;15.338;2023-08-31T00:21:42;94408.78;;;10.67;88.55
47636;BME280;33364;50.766;15.338;2023-08-31T00:24:08;94414.66;;;10.64;88.91
47636;BME280;33364;50.766;15.338;2023-08-31T00:26:36;94413.28;;;10.67;89.30
47636;BME280;33364;50.766;15.338;2023-08-31T00:29:07;94414.06;;;10.67;89.29
47636;BME280;33364;50.766;15.338;2023-08-31T00:31:34;94414.53;;;10.69;88.88
47636;BME280;33364;50.766;15.338;2023-08-31T00:34:01;94414.34;;;10.66;88.41
47636;BME280;33364;50.766;15.338;2023-08-31T00:36:29;94409.38;;;10.64;88.87
47636;BME280;33364;50.766;15.338;2023-08-31T00:38:55;94411.66;;;10.57;88.56
47636;BME280;33364;50.766;15.338;2023-08-31T00:41:22;94413.81;;;10.55;89.01
47636;BME280;33364;50.766;15.338;2023-08-31T00:43:48;94416.56;;;10.50;89.18
47636;BME280;33364;50.766;15.338;2023-08-31T00:46:14;94410.50;;;10.49;89.50
47636;BME280;33364;50.766;15.338;2023-08-31T00:48:41;94409.72;;;10.49;89.91
47636;BME280;33364;50.766;15.338;2023-08-31T00:51:07;94413.97;;;10.58;89.90
47636;BME280;33364;50.766;15.338;2023-08-31T00:53:33;94409.19;;;10.61;89.58
47636;BME280;33364;50.766;15.338;2023-08-31T00:56:00;94413.47;;;10.70;90.10
47636;BME280;33364;50.766;15.338;2023-08-31T00:58:27;94406.03;;;10.72;89.41
47636;BME280;33364;50.766;15.338;2023-08-31T01:01:09;94407.78;;;10.77;89.19
47636;BME280;33364;50.766;15.338;2023-08-31T01:06:36;94411.06;;;10.82;89.97
47636;BME280;33364;50.766;15.338;2023-08-31T01:12:18;94408.66;;;10.72;89.88
47636;BME280;33364;50.766;15.338;2023-08-31T01:14:55;94412.88;;;10.73;90.17
47636;BME280;33364;50.766;15.338;2023-08-31T01:17:26;94409.00;;;10.79;90.35
47636;BME280;33364;50.766;15.338;2023-08-31T01:19:55;94401.22;;;10.74;90.44
47636;BME280;33364;50.766;15.338;2023-08-31T01:22:29;94399.84;;;10.77;90.38
47636;BME280;33364;50.766;15.338;2023-08-31T01:24:58;94397.88;;;10.82;90.50
47636;BME280;33364;50.766;15.338;2023-08-31T01:27:32;94387.47;;;10.86;90.01
47636;BME280;33364;50.766;15.338;2023-08-31T01:29:58;94391.63;;;10.78;89.98
47636;BME280;33364;50.766;15.338;2023-08-31T01:32:24;94396.53;;;10.71;90.33
47636;BME280;33364;50.766;15.338;2023-08-31T01:34:50;94405.66;;;10.65;90.73
47636;BME280;33364;50.766;15.338;2023-08-31T01:37:22;94403.19;;;10.69;90.52
47636;BME280;33364;50.766;15.338;2023-08-31T01:39:54;94396.53;;;10.71;90.48
47636;BME280;33364;50.766;15.338;2023-08-31T01:42:21;94400.38;;;10.65;90.04
47636;BME280;33364;50.766;15.338;2023-08-31T01:44:50;94396.03;;;10.69;89.80
47636;BME280;33364;50.766;15.338;2023-08-31T01:47:16;94402.63;;;10.58;89.44
47636;BME280;33364;50.766;15.338;2023-08-31T01:49:45;94405.59;;;10.56;89.63
47636;BME280;33364;50.766;15.338;2023-08-31T01:52:10;94401.28;;;10.47;89.76
47636;BME280;33364;50.766;15.338;2023-08-31T01:54:36;94403.06;;;10.51;89.77
47636;BME280;33364;50.766;15.338;2023-08-31T01:57:05;94404.53;;;10.44;89.19
47636;BME280;33364;50.766;15.338;2023-08-31T01:59:33;94394.59;;;10.41;89.37
47636;BME280;33364;50.766;15.338;2023-08-31T02:01:59;94405.03;;;10.46;89.46
47636;BME280;33364;50.766;15.338;2023-08-31T02:04:25;94397.47;;;10.53;89.49
47636;BME280;33364;50.766;15.338;2023-08-31T02:06:50;94403.47;;;10.45;89.27
47636;BME280;33364;50.766;15.338;2023-08-31T02:09:16;94408.63;;;10.50;89.14
47636;BME280;33364;50.766;15.338;2023-08-31T02:11:42;94404.59;;;10.52;89.10
47636;BME280;33364;50.766;15.338;2023-08-31T02:14:07;94414.59;;;10.42;88.50
47636;BME280;33364;50.766;15.338;2023-08-31T02:16:34;94415.03;;;10.35;88.70
47636;BME280;33364;50.766;15.338;2023-08-31T02:19:00;94405.31;;;10.44;88.81
47636;BME280;33364;50.766;15.338;2023-08-31T02:21:25;94406.00;;;10.50;88.68
47636;BME280;33364;50.766;15.338;2023-08-31T02:23:51;94400.34;;;10.43;88.78
47636;BME280;33364;50.766;15.338;2023-08-31T02:26:17;94403.75;;;10.43;88.99
47636;BME280;33364;50.766;15.338;2023-08-31T02:28:43;94401.91;;;10.44;89.31
47636;BME280;33364;50.766;15.338;2023-08-31T02:31:09;94397.41;;;10.44;89.79
47636;BME280;33364;50.766;15.338;2023-08-31T02:33:35;94399.56;;;10.42;90.13
47636;BME280;33364;50.766;15.338;2023-08-31T02:36:01;94394.28;;;10.42;90.63
47636;BME280;33364;50.766;15.338;2023-08-31T02:38:27;94395.53;;;10.45;90.80
47636;BME280;33364;50.766;15.338;2023-08-31T02:40:53;94395.63;;;10.53;90.67
47636;BME280;33364;50.766;15.338;2023-08-31T02:43:19;94398.13;;;10.58;90.54
47636;BME280;33364;50.766;15.338;2023-08-31T02:45:44;94398.47;;;10.57;90.71
47636;BME280;33364;50.766;15.338;2023-08-31T02:48:11;94402.16;;;10.56;90.97
47636;BME280;33364;50.766;15.338;2023-08-31T02:50:37;94407.34;;;10.61;90.93
47636;BME280;33364;50.766;15.338;2023-08-31T02:53:03;94407.22;;;10.66;90.92
47636;BME280;33364;50.766;15.338;2023-08-31T02:55:32;94402.50;;;10.77;90.69
47636;BME280;33364;50.766;15.338;2023-08-31T02:57:59;94399.44;;;10.83;90.60
47636;BME280;33364;50.766;15.338;2023-08-31T03:00:24;94398.66;;;10.83;90.63
47636;BME280;33364;50.766;15.338;2023-08-31T03:02:50;94405.97;;;10.86;90.90
47636;BME280;33364;50.766;15.338;2023-08-31T03:05:19;94407.81;;;10.85;90.91
47636;BME280;33364;50.766;15.338;2023-08-31T03:07:47;94405.66;;;10.87;91.38
47636;BME280;33364;50.766;15.338;2023-08-31T03:10:13;94409.28;;;10.91;91.14
47636;BME280;33364;50.766;15.338;2023-08-31T03:12:39;94407.00;;;10.98;91.18
47636;BME280;33364;50.766;15.338;2023-08-31T03:15:05;94406.69;;;11.00;91.08
47636;BME280;33364;50.766;15.338;2023-08-31T03:17:31;94406.78;;;10.95;91.32
47636;BME280;33364;50.766;15.338;2023-08-31T03:19:57;94408.38;;;10.96;91.51
47636;BME280;33364;50.766;15.338;2023-08-31T03:22:23;94400.16;;;10.97;91.33
47636;BME280;33364;50.766;15.338;2023-08-31T03:24:48;94402.66;;;11.02;91.40
47636;BME280;33364;50.766;15.338;2023-08-31T03:27:14;94402.66;;;11.02;91.49
47636;BME280;33364;50.766;15.338;2023-08-31T03:29:41;94409.63;;;10.98;91.76
47636;BME280;33364;50.766;15.338;2023-08-31T03:32:07;94407.34;;;11.06;91.89
47636;BME280;33364;50.766;15.338;2023-08-31T03:34:33;94408.31;;;11.10;91.48
47636;BME280;33364;50.766;15.338;2023-08-31T03:36:59;94410.22;;;11.18;91.24
47636;BME280;33364;50.766;15.338;2023-08-31T03:39:25;94404.16;;;11.17;91.44
47636;BME280;33364;50.766;15.338;2023-08-31T03:41:51;94412.19;;;11.12;91.79
47636;BME280;33364;50.766;15.338;2023-08-31T03:44:17;94411.13;;;11.13;92.06
47636;BME280;33364;50.766;15.338;2023-08-31T03:46:43;94413.59;;;11.10;92.27
47636;BME280;33364;50.766;15.338;2023-08-31T03:49:09;94416.72;;;11.12;92.47
47636;BME280;33364;50.766;15.338;2023-08-31T03:51:35;94415.13;;;11.11;92.32
47636;BME280;33364;50.766;15.338;2023-08-31T03:54:01;94415.34;;;11.14;92.50
47636;BME280;33364;50.766;15.338;2023-08-31T03:56:27;94414.72;;;11.17;92.79
47636;BME280;33364;50.766;15.338;2023-08-31T03:58:53;94414.44;;;11.19;92.66
47636;BME280;33364;50.766;15.338;2023-08-31T04:01:19;94406.66;;;11.22;92.73
47636;BME280;33364;50.766;15.338;2023-08-31T04:03:44;94412.91;;;11.26;92.47
47636;BME280;33364;50.766;15.338;2023-08-31T04:06:10;94408.41;;;11.27;92.71
47636;BME280;33364;50.766;15.338;2023-08-31T04:08:36;94405.47;;;11.28;92.66
47636;BME280;33364;50.766;15.338;2023-08-31T04:11:02;94396.16;;;11.31;92.47
47636;BME280;33364;50.766;15.338;2023-08-31T04:13:28;94404.56;;;11.33;92.50
47636;BME280;33364;50.766;15.338;2023-08-31T04:15:54;94403.47;;;11.34;92.59
47636;BME280;33364;50.766;15.338;2023-08-31T04:18:21;94404.41;;;11.38;92.64
47636;BME280;33364;50.766;15.338;2023-08-31T04:20:51;94407.56;;;11.40;92.67
47636;BME280;33364;50.766;15.338;2023-08-31T04:23:18;94417.06;;;11.41;92.49
47636;BME280;33364;50.766;15.338;2023-08-31T04:25:45;94408.50;;;11.44;92.65
47636;BME280;33364;50.766;15.338;2023-08-31T04:28:11;94416.78;;;11.51;92.38
47636;BME280;33364;50.766;15.338;2023-08-31T04:30:39;94413.53;;;11.54;92.50
47636;BME280;33364;50.766;15.338;2023-08-31T04:33:06;94417.56;;;11.52;92.38
47636;BME280;33364;50.766;15.338;2023-08-31T04:35:33;94410.44;;;11.52;92.46
47636;BME280;33364;50.766;15.338;2023-08-31T04:37:58;94417.59;;;11.60;92.37
47636;BME280;33364;50.766;15.338;2023-08-31T04:40:24;94422.88;;;11.60;92.24
47636;BME280;33364;50.766;15.338;2023-08-31T04:42:50;94425.06;;;11.58;92.36
47636;BME280;33364;50.766;15.338;2023-08-31T04:45:16;94421.81;;;11.61;92.18
47636;BME280;33364;50.766;15.338;2023-08-31T04:47:42;94417.19;;;11.67;92.15
47636;BME280;33364;50.766;15.338;2023-08-31T04:50:08;94423.06;;;11.64;92.09
47636;BME280;33364;50.766;15.338;2023-08-31T04:52:34;94430.53;;;11.62;92.19
47636;BME280;33364;50.766;15.338;2023-08-31T04:55:01;94443.25;;;11.60;91.79
47636;BME280;33364;50.766;15.338;2023-08-31T04:57:27;94435.81;;;11.62;91.85
47636;BME280;33364;50.766;15.338;2023-08-31T04:59:54;94448.09;;;11.58;91.82
47636;BME280;33364;50.766;15.338;2023-08-31T05:02:19;94447.78;;;11.59;91.92
47636;BME280;33364;50.766;15.338;2023-08-31T05:04:45;94459.91;;;11.60;91.74
47636;BME280;33364;50.766;15.338;2023-08-31T05:07:11;94449.34;;;11.60;91.30
47636;BME280;33364;50.766;15.338;2023-08-31T05:09:37;94458.34;;;11.59;91.37
47636;BME280;33364;50.766;15.338;2023-08-31T05:12:02;94456.91;;;11.53;91.85
47636;BME280;33364;50.766;15.338;2023-08-31T05:14:29;94459.22;;;11.46;92.22
47636;BME280;33364;50.766;15.338;2023-08-31T05:16:55;94462.53;;;11.52;92.55
47636;BME280;33364;50.766;15.338;2023-08-31T05:19:21;94454.75;;;11.55;91.95
47636;BME280;33364;50.766;15.338;2023-08-31T05:21:47;94459.75;;;11.57;91.85
47636;BME280;33364;50.766;15.338;2023-08-31T05:24:13;94463.47;;;11.56;91.82
47636;BME280;33364;50.766;15.338;2023-08-31T05:26:39;94462.06;;;11.58;92.01
47636;BME280;33364;50.766;15.338;2023-08-31T05:29:05;94468.59;;;11.52;91.78
47636;BME280;33364;50.766;15.338;2023-08-31T05:31:31;94474.22;;;11.59;91.83
47636;BME280;33364;50.766;15.338;2023-08-31T05:33:57;94472.66;;;11.58;91.68
47636;BME280;33364;50.766;15.338;2023-08-31T05:36:23;94468.16;;;11.59;91.73
47636;BME280;33364;50.766;15.338;2023-08-31T05:38:51;94465.50;;;11.59;91.77
47636;BME280;33364;50.766;15.338;2023-08-31T05:41:16;94472.66;;;11.58;91.67
47636;BME280;33364;50.766;15.338;2023-08-31T05:43:42;94469.34;;;11.53;92.04
47636;BME280;33364;50.766;15.338;2023-08-31T05:46:08;94476.41;;;11.57;92.04
47636;BME280;33364;50.766;15.338;2023-08-31T05:48:36;94473.28;;;11.55;91.39
47636;BME280;33364;50.766;15.338;2023-08-31T05:51:02;94484.34;;;11.57;91.47
47636;BME280;33364;50.766;15.338;2023-08-31T05:53:32;94480.91;;;11.57;90.87
47636;BME280;33364;50.766;15.338;2023-08-31T05:55:58;94483.34;;;11.53;91.16
47636;BME280;33364;50.766;15.338;2023-08-31T05:58:34;94487.56;;;11.54;91.13
47636;BME280;33364;50.766;15.338;2023-08-31T06:01:01;94483.84;;;11.55;90.36
47636;BME280;33364;50.766;15.338;2023-08-31T06:03:27;94484.34;;;11.57;90.39
47636;BME280;33364;50.766;15.338;2023-08-31T06:05:53;94494.06;;;11.48;90.47
47636;BME280;33364;50.766;15.338;2023-08-31T06:08:19;94502.66;;;11.54;90.53
47636;BME280;33364;50.766;15.338;2023-08-31T06:10:44;94501.06;;;11.53;90.63
47636;BME280;33364;50.766;15.338;2023-08-31T06:13:10;94502.00;;;11.48;90.45
47636;BME280;33364;50.766;15.338;2023-08-31T06:15:36;94499.19;;;11.44;90.92
47636;BME280;33364;50.766;15.338;2023-08-31T06:18:02;94504.84;;;11.52;90.89
47636;BME280;33364;50.766;15.338;2023-08-31T06:20:28;94515.94;;;11.40;91.10
47636;BME280;33364;50.766;15.338;2023-08-31T06:22:54;94516.66;;;11.32;91.55
47636;BME280;33364;50.766;15.338;2023-08-31T06:25:19;94521.34;;;11.35;91.53
47636;BME280;33364;50.766;15.338;2023-08-31T06:27:47;94524.69;;;11.27;91.70
47636;BME280;33364;50.766;15.338;2023-08-31T06:30:12;94525.81;;;11.12;92.11
47636;BME280;33364;50.766;15.338;2023-08-31T06:32:43;94509.44;;;11.24;92.13
47636;BME280;33364;50.766;15.338;2023-08-31T06:35:10;94486.16;;;11.26;92.25
47636;BME280;33364;50.766;15.338;2023-08-31T06:37:36;94483.19;;;11.27;92.35
47636;BME280;33364;50.766;15.338;2023-08-31T06:40:03;94502.47;;;11.28;91.82
47636;BME280;33364;50.766;15.338;2023-08-31T06:42:29;94507.88;;;11.23;92.17
47636;BME280;33364;50.766;15.338;2023-08-31T06:44:55;94517.81;;;11.39;92.45
47636;BME280;33364;50.766;15.338;2023-08-31T06:47:22;94528.44;;;11.48;91.71
47636;BME280;33364;50.766;15.338;2023-08-31T06:49:49;94515.69;;;11.50;91.88
47636;BME280;33364;50.766;15.338;2023-08-31T06:52:15;94526.09;;;11.47;91.91
47636;BME280;33364;50.766;15.338;2023-08-31T06:54:41;94528.25;;;11.44;92.38
47636;BME280;33364;50.766;15.338;2023-08-31T06:57:07;94527.66;;;11.48;91.81
47636;BME280;33364;50.766;15.338;2023-08-31T06:59:33;94519.50;;;11.35;91.52
47636;BME280;33364;50.766;15.338;2023-08-31T07:01:59;94525.06;;;11.34;91.79
47636;BME280;33364;50.766;15.338;2023-08-31T07:04:26;94526.56;;;11.26;92.67
47636;BME280;33364;50.766;15.338;2023-08-31T07:06:53;94539.03;;;11.26;92.78
47636;BME280;33364;50.766;15.338;2023-08-31T07:09:18;94533.72;;;11.26;92.40
47636;BME280;33364;50.766;15.338;2023-08-31T07:11:44;94535.75;;;11.29;92.20
47636;BME280;33364;50.766;15.338;2023-08-31T07:14:10;94526.63;;;11.35;91.70
47636;BME280;33364;50.766;15.338;2023-08-31T07:16:36;94536.81;;;11.41;91.98
47636;BME280;33364;50.766;15.338;2023-08-31T07:19:01;94539.63;;;11.45;91.90
47636;BME280;33364;50.766;15.338;2023-08-31T07:21:28;94542.84;;;11.42;91.67
47636;BME280;33364;50.766;15.338;2023-08-31T07:23:54;94538.53;;;11.46;91.53
47636;BME280;33364;50.766;15.338;2023-08-31T07:26:21;94541.66;;;11.48;91.44
47636;BME280;33364;50.766;15.338;2023-08-31T07:28:47;94543.03;;;11.46;91.75
47636;BME280;33364;50.766;15.338;2023-08-31T07:31:13;94543.41;;;11.30;92.05
47636;BME280;33364;50.766;15.338;2023-08-31T07:33:38;94547.72;;;11.49;92.17
47636;BME280;33364;50.766;15.338;2023-08-31T07:36:05;94553.00;;;11.49;91.80
47636;BME280;33364;50.766;15.338;2023-08-31T07:38:32;94557.06;;;11.46;92.01
47636;BME280;33364;50.766;15.338;2023-08-31T07:40:59;94553.66;;;11.32;92.26
47636;BME280;33364;50.766;15.338;2023-08-31T07:43:27;94573.50;;;11.21;92.10
47636;BME280;33364;50.766;15.338;2023-08-31T07:45:54;94570.97;;;11.38;92.54
47636;BME280;33364;50.766;15.338;2023-08-31T07:48:19;94578.72;;;11.34;92.52
47636;BME280;33364;50.766;15.338;2023-08-31T07:50:45;94579.50;;;11.35;92.23
47636;BME280;33364;50.766;15.338;2023-08-31T07:53:11;94588.78;;;11.46;92.40
47636;BME280;33364;50.766;15.338;2023-08-31T07:55:39;94592.09;;;11.52;92.03
47636;BME280;33364;50.766;15.338;2023-08-31T07:58:05;94594.63;;;11.57;91.48
47636;BME280;33364;50.766;15.338;2023-08-31T08:00:30;94594.28;;;11.58;91.44
47636;BME280;33364;50.766;15.338;2023-08-31T08:02:56;94604.88;;;11.58;92.03
47636;BME280;33364;50.766;15.338;2023-08-31T08:05:22;94602.69;;;11.74;91.41
47636;BME280;33364;50.766;15.338;2023-08-31T08:07:48;94605.25;;;11.79;91.14
47636;BME280;33364;50.766;15.338;2023-08-31T08:10:14;94604.47;;;11.78;90.64
47636;BME280;33364;50.766;15.338;2023-08-31T08:12:41;94601.97;;;11.82;90.06
47636;BME280;33364;50.766;15.338;2023-08-31T08:15:10;94617.19;;;11.76;90.06
47636;BME280;33364;50.766;15.338;2023-08-31T08:17:36;94616.00;;;11.82;90.05
47636;BME280;33364;50.766;15.338;2023-08-31T08:20:02;94624.72;;;11.83;89.89
47636;BME280;33364;50.766;15.338;2023-08-31T08:22:28;94623.81;;;11.88;90.13
47636;BME280;33364;50.766;15.338;2023-08-31T08:24:54;94629.81;;;12.02;89.80
47636;BME280;33364;50.766;15.338;2023-08-31T08:27:20;94632.56;;;12.19;89.28
47636;BME280;33364;50.766;15.338;2023-08-31T08:29:46;94622.81;;;12.28;89.77
47636;BME280;33364;50.766;15.338;2023-08-31T08:32:12;94628.09;;;12.28;89.61
47636;BME280;33364;50.766;15.338;2023-08-31T08:34:38;94631.34;;;12.25;89.07
47636;BME280;33364;50.766;15.338;2023-08-31T08:37:04;94629.19;;;12.27;89.14
47636;BME280;33364;50.766;15.338;2023-08-31T08:39:30;94626.53;;;12.27;88.66
47636;BME280;33364;50.766;15.338;2023-08-31T08:41:58;94631.28;;;12.16;88.07
47636;BME280;33364;50.766;15.338;2023-08-31T08:44:33;94634.25;;;12.15;88.39
47636;BME280;33364;50.766;15.338;2023-08-31T08:47:01;94634.25;;;12.37;88.12
47636;BME280;33364;50.766;15.338;2023-08-31T08:49:28;94631.19;;;12.52;88.87
47636;BME280;33364;50.766;15.338;2023-08-31T08:51:54;94629.13;;;12.49;88.47
47636;BME280;33364;50.766;15.338;2023-08-31T08:54:22;94627.44;;;12.53;87.85
47636;BME280;33364;50.766;15.338;2023-08-31T08:56:47;94641.94;;;12.56;86.93
47636;BME280;33364;50.766;15.338;2023-08-31T08:59:14;94633.25;;;12.64;86.97
47636;BME280;33364;50.766;15.338;2023-08-31T09:01:40;94637.38;;;12.79;86.29
47636;BME280;33364;50.766;15.338;2023-08-31T09:04:06;94641.03;;;13.00;84.96
47636;BME280;33364;50.766;15.338;2023-08-31T09:06:32;94639.78;;;13.06;83.09
47636;BME280;33364;50.766;15.338;2023-08-31T09:08:58;94636.59;;;13.26;81.97
47636;BME280;33364;50.766;15.338;2023-08-31T09:11:25;94644.25;;;13.45;83.20
47636;BME280;33364;50.766;15.338;2023-08-31T09:13:52;94637.09;;;13.54;81.91
47636;BME280;33364;50.766;15.338;2023-08-31T09:16:29;94640.06;;;13.87;82.18
47636;BME280;33364;50.766;15.338;2023-08-31T09:18:56;94634.69;;;14.38;79.76
47636;BME280;33364;50.766;15.338;2023-08-31T09:21:22;94631.78;;;14.78;75.85
47636;BME280;33364;50.766;15.338;2023-08-31T09:23:56;94633.69;;;14.69;77.36
47636;BME280;33364;50.766;15.338;2023-08-31T09:26:23;94628.44;;;14.52;76.44
47636;BME280;33364;50.766;15.338;2023-08-31T09:28:49;94634.84;;;14.89;76.54
47636;BME280;33364;50.766;15.338;2023-08-31T09:31:15;94641.41;;;14.91;74.75
47636;BME280;33364;50.766;15.338;2023-08-31T09:33:50;94653.00;;;14.49;76.00
47636;BME280;33364;50.766;15.338;2023-08-31T09:36:15;94651.25;;;14.53;76.21
47636;BME280;33364;50.766;15.338;2023-08-31T09:38:42;94657.22;;;14.41;74.94
47636;BME280;33364;50.766;15.338;2023-08-31T09:41:12;94662.19;;;14.51;77.58
47636;BME280;33364;50.766;15.338;2023-08-31T09:43:38;94655.34;;;14.24;76.60
47636;BME280;33364;50.766;15.338;2023-08-31T09:46:04;94663.28;;;14.33;75.57
47636;BME280;33364;50.766;15.338;2023-08-31T09:48:30;94668.97;;;13.88;74.89
47636;BME280;33364;50.766;15.338;2023-08-31T09:50:57;94667.88;;;13.89;75.19
47636;BME280;33364;50.766;15.338;2023-08-31T09:53:29;94670.50;;;13.98;77.32
47636;BME280;33364;50.766;15.338;2023-08-31T09:55:56;94667.97;;;14.45;76.15
47636;BME280;33364;50.766;15.338;2023-08-31T09:58:22;94668.22;;;14.77;73.88
47636;BME280;33364;50.766;15.338;2023-08-31T10:00:50;94674.06;;;14.54;73.68
47636;BME280;33364;50.766;15.338;2023-08-31T10:03:16;94669.16;;;14.73;74.19
47636;BME280;33364;50.766;15.338;2023-08-31T10:05:43;94667.97;;;14.91;71.76
47636;BME280;33364;50.766;15.338;2023-08-31T10:08:11;94661.00;;;15.16;69.83
47636;BME280;33364;50.766;15.338;2023-08-31T10:10:37;94664.50;;;15.37;68.08
47636;BME280;33364;50.766;15.338;2023-08-31T10:13:06;94666.88;;;14.92;70.00
47636;BME280;33364;50.766;15.338;2023-08-31T10:15:33;94662.06;;;15.23;70.65
47636;BME280;33364;50.766;15.338;2023-08-31T10:18:00;94665.22;;;15.17;70.21
47636;BME280;33364;50.766;15.338;2023-08-31T10:20:26;94665.28;;;15.38;68.58
47636;BME280;33364;50.766;15.338;2023-08-31T10:23:04;94663.88;;;15.02;70.16
47636;BME280;33364;50.766;15.338;2023-08-31T10:28:22;94665.41;;;15.12;70.85
47636;BME280;33364;50.766;15.338;2023-08-31T10:31:04;94672.88;;;14.80;70.47
47636;BME280;33364;50.766;15.338;2023-08-31T10:33:46;94670.31;;;14.46;73.74
47636;BME280;33364;50.766;15.338;2023-08-31T10:36:16;94671.09;;;14.47;71.71
47636;BME280;33364;50.766;15.338;2023-08-31T10:39:00;94671.41;;;14.45;74.65
47636;BME280;33364;50.766;15.338;2023-08-31T10:41:33;94671.59;;;14.49;75.32
47636;BME280;33364;50.766;15.338;2023-08-31T10:43:59;94671.41;;;14.45;77.94
47636;BME280;33364;50.766;15.338;2023-08-31T10:51:38;94662.34;;;14.46;75.60
47636;BME280;33364;50.766;15.338;2023-08-31T10:54:05;94666.84;;;14.63;77.99
47636;BME280;33364;50.766;15.338;2023-08-31T10:56:31;94661.22;;;14.56;73.40
47636;BME280;33364;50.766;15.338;2023-08-31T10:58:58;94665.84;;;15.23;72.63
47636;BME280;33364;50.766;15.338;2023-08-31T11:02:01;94668.19;;;15.53;72.29
47636;BME280;33364;50.766;15.338;2023-08-31T11:04:30;94676.03;;;15.41;74.33
47636;BME280;33364;50.766;15.338;2023-08-31T11:07:28;94667.97;;;15.29;72.01
47636;BME280;33364;50.766;15.338;2023-08-31T11:10:10;94669.31;;;15.44;72.97
47636;BME280;33364;50.766;15.338;2023-08-31T11:12:37;94673.88;;;15.35;71.47
47636;BME280;33364;50.766;15.338;2023-08-31T11:15:03;94674.53;;;15.61;71.35
47636;BME280;33364;50.766;15.338;2023-08-31T11:17:29;94683.28;;;15.91;72.19
47636;BME280;33364;50.766;15.338;2023-08-31T11:19:56;94684.16;;;15.74;70.56
47636;BME280;33364;50.766;15.338;2023-08-31T11:22:22;94677.00;;;15.37;68.01
47636;BME280;33364;50.766;15.338;2023-08-31T11:24:48;94673.44;;;15.33;69.10
47636;BME280;33364;50.766;15.338;2023-08-31T11:27:14;94674.94;;;15.13;71.73
47636;BME280;33364;50.766;15.338;2023-08-31T11:29:43;94673.28;;;15.00;71.16
47636;BME280;33364;50.766;15.338;2023-08-31T11:32:09;94672.69;;;14.94;72.89
47636;BME280;33364;50.766;15.338;2023-08-31T11:34:40;94677.88;;;14.91;73.97
47636;BME280;33364;50.766;15.338;2023-08-31T11:37:07;94682.72;;;14.89;72.63
47636;BME280;33364;50.766;15.338;2023-08-31T11:39:33;94685.06;;;14.82;74.71
47636;BME280;33364;50.766;15.338;2023-08-31T11:41:58;94685.59;;;14.75;74.91
47636;BME280;33364;50.766;15.338;2023-08-31T11:44:25;94691.38;;;14.68;74.77
47636;BME280;33364;50.766;15.338;2023-08-31T11:46:51;94692.03;;;14.57;74.47
47636;BME280;33364;50.766;15.338;2023-08-31T11:49:18;94687.25;;;14.88;74.82
47636;BME280;33364;50.766;15.338;2023-08-31T11:51:45;94697.22;;;15.00;74.01
47636;BME280;33364;50.766;15.338;2023-08-31T11:54:11;94684.97;;;15.07;70.38
47636;BME280;33364;50.766;15.338;2023-08-31T11:56:44;94682.81;;;15.01;68.03
47636;BME280;33364;50.766;15.338;2023-08-31T11:59:20;94677.34;;;14.97;65.76
47636;BME280;33364;50.766;15.338;2023-08-31T12:01:47;94674.06;;;15.30;66.97
47636;BME280;33364;50.766;15.338;2023-08-31T12:04:21;94678.19;;;15.77;66.72
47636;BME280;33364;50.766;15.338;2023-08-31T12:06:52;94688.72;;;16.15;65.78
47636;BME280;33364;50.766;15.338;2023-08-31T12:09:20;94680.19;;;16.55;62.85
47636;BME280;33364;50.766;15.338;2023-08-31T12:11:51;94683.31;;;16.57;60.96
47636;BME280;33364;50.766;15.338;2023-08-31T12:14:21;94673.28;;;16.74;61.27
47636;BME280;33364;50.766;15.338;2023-08-31T12:16:49;94673.41;;;17.51;60.09
47636;BME280;33364;50.766;15.338;2023-08-31T12:19:16;94667.09;;;17.55;58.79
47636;BME280;33364;50.766;15.338;2023-08-31T12:21:44;94664.25;;;18.28;57.81
47636;BME280;33364;50.766;15.338;2023-08-31T12:24:10;94665.59;;;18.22;56.50
47636;BME280;33364;50.766;15.338;2023-08-31T12:26:36;94680.06;;;18.21;55.12
47636;BME280;33364;50.766;15.338;2023-08-31T12:29:03;94673.41;;;17.75;54.55
47636;BME280;33364;50.766;15.338;2023-08-31T12:31:33;94676.19;;;17.30;56.28
47636;BME280;33364;50.766;15.338;2023-08-31T12:33:59;94679.19;;;17.41;55.87
47636;BME280;33364;50.766;15.338;2023-08-31T12:36:32;94678.81;;;16.69;55.90
47636;BME280;33364;50.766;15.338;2023-08-31T12:38:58;94672.38;;;16.82;54.94
47636;BME280;33364;50.766;15.338;2023-08-31T12:41:28;94695.81;;;16.65;56.47
47636;BME280;33364;50.766;15.338;2023-08-31T12:43:54;94687.84;;;16.56;59.27
47636;BME280;33364;50.766;15.338;2023-08-31T12:46:20;94690.25;;;16.37;59.39
47636;BME280;33364;50.766;15.338;2023-08-31T12:48:45;94692.34;;;16.11;58.30
47636;BME280;33364;50.766;15.338;2023-08-31T12:51:11;94701.44;;;16.10;59.01
47636;BME280;33364;50.766;15.338;2023-08-31T12:53:38;94711.81;;;15.82;59.74
47636;BME280;33364;50.766;15.338;2023-08-31T12:56:05;94717.34;;;15.47;61.91
47636;BME280;33364;50.766;15.338;2023-08-31T12:58:31;94716.28;;;15.40;63.32
47636;BME280;33364;50.766;15.338;2023-08-31T13:00:58;94731.44;;;15.10;64.45
47636;BME280;33364;50.766;15.338;2023-08-31T13:03:25;94726.78;;;14.98;65.80
47636;BME280;33364;50.766;15.338;2023-08-31T13:05:51;94732.66;;;15.12;66.83